This demonstration page uses our WeatherBlox Daily Observations layout. Learn more.

41.86663, -103.66717

Hourly Observations for January 23, 2020

Temp ( °F °C ) Dew Point ( °F °C ) Humidity (%) Winds ( mph kmh ) Pressure ( in mb ) Visibility ( mi km ) Precip ( " mm )
12:53 am 00:53 Clear 25 -3.9 20 -6.7 81 81 WNW 13 20 30.08 1019 10 16.0934 0 0
1:53 am 01:53 Clear 24 -4.4 20 -6.7 84 84 WNW 10 17 30.09 1019 10 16.0934 0 0
2:53 am 02:53 Clear 24 -4.4 20 -6.7 84 84 WNW 9 15 30.11 1020 10 16.0934 0 0
3:53 am 03:53 Clear 22 -5.6 19 -7.2 89 89 NW 7 11 30.14 1021 10 16.0934 0 0
4:53 am 04:53 Clear 22 -5.6 18 -7.8 85 85 WNW 10 17 30.16 1021 10 16.0934 0 0
5:53 am 05:53 Clear 19 -7.2 16 -8.9 88 88 NNW 6 9 30.21 1023 10 16.0934 0 0
6:53 am 06:53 Clear 20 -6.7 16 -8.9 85 85 NW 7 11 30.2 1023 10 16.0934 0 0
7:53 am 07:53 Sunny 24 -4.4 17 -8.3 75 75 WNW 10 17 30.22 1023 10 16.0934 0 0
8:53 am 08:53 Sunny 29 -1.7 18 -7.8 63 63 WNW 12 19 30.22 1023 10 16.0934 0 0
9:53 am 09:53 Sunny 34 1.1 19 -7.2 54 54 WNW 12 19 30.22 1023 10 16.0934 0 0
10:53 am 10:53 Sunny 41 5 21 -6.1 45 45 WNW 14 22 30.18 1022 10 16.0934 0 0
11:53 am 11:53 Sunny 44 6.7 18 -7.8 35 35 NW 17 28 30.15 1021 10 16.0934 0 0
2:53 pm 14:53 Sunny 45 7.2 17 -8.3 33 33 NW 20 31 30.11 1020 10 16.0934 0 0
3:53 pm 15:53 Mostly Sunny 42 5.6 18 -7.8 38 38 NNW 20 31 30.15 1021 10 16.0934 0 0
4:53 pm 16:53 Sunny 38 3.3 18 -7.8 44 44 NW 9 15 30.16 1021 10 16.0934 0 0
5:53 pm 17:53 Clear 31 -0.6 17 -8.3 56 56 NNW 7 11 30.19 1022 10 16.0934 0 0
6:53 pm 18:53 Clear 25 -3.9 17 -8.3 72 72 NNW 6 9 30.2 1023 10 16.0934 0 0
7:53 pm 19:53 Clear 25 -3.9 17 -8.3 72 72 Calm 30.2 1023 10 16.0934 0 0
8:53 pm 20:53 Clear 27 -2.8 18 -7.8 69 69 WNW 5 7 30.19 1022 10 16.0934 0 0
9:53 pm 21:53 Clear 21 -6.1 16 -8.9 81 81 NW 8 13 30.19 1022 10 16.0934 0 0
10:53 pm 22:53 Clear 21 -6.1 16 -8.9 81 81 W 5 7 30.16 1022 10 16.0934 0 0
11:53 pm 23:53 Mostly Cloudy 22 -5.6 17 -8.3 82 82 NNW 7 11 30.14 1021 10 16.0934 0 0

Powered by AerisWeather